createdAt,value
2018-09-18T00:01:32.619Z,11.70
2018-09-18T00:04:01.347Z,11.70
2018-09-18T00:06:29.779Z,11.70
2018-09-18T00:08:58.025Z,11.70
2018-09-18T00:11:26.286Z,11.70
2018-09-18T00:13:54.600Z,11.60
2018-09-18T00:16:22.837Z,11.60
2018-09-18T00:18:51.022Z,11.60
2018-09-18T00:21:19.225Z,11.60
2018-09-18T00:23:47.533Z,11.60
2018-09-18T00:26:15.767Z,11.60
2018-09-18T00:28:44.269Z,11.60
2018-09-18T00:31:12.461Z,11.60
2018-09-18T00:33:40.673Z,11.50
2018-09-18T00:36:09.117Z,11.40
2018-09-18T00:38:37.430Z,11.40
2018-09-18T00:41:05.840Z,11.60
2018-09-18T00:43:34.287Z,11.30
2018-09-18T00:46:02.560Z,11.30
2018-09-18T00:48:30.882Z,11.30
2018-09-18T00:50:59.106Z,11.30
2018-09-18T00:53:27.658Z,11.30
2018-09-18T00:55:56.077Z,11.40
2018-09-18T00:58:24.437Z,11.40
2018-09-18T01:00:52.611Z,11.30
2018-09-18T01:03:21.236Z,11.30
2018-09-18T01:05:49.571Z,11.30
2018-09-18T01:08:18.240Z,11.30
2018-09-18T01:10:46.475Z,11.30
2018-09-18T01:13:14.912Z,11.20
2018-09-18T01:15:43.289Z,11.20
2018-09-18T01:18:11.934Z,11.20
2018-09-18T01:20:40.191Z,11.20
2018-09-18T01:23:08.645Z,11.30
2018-09-18T01:25:36.972Z,11.30
2018-09-18T01:28:05.323Z,11.30
2018-09-18T01:30:33.721Z,11.30
2018-09-18T01:33:02.050Z,11.40
2018-09-18T01:35:30.209Z,11.40
2018-09-18T01:37:58.822Z,11.40
2018-09-18T01:40:27.191Z,11.60
2018-09-18T01:42:55.316Z,11.60
2018-09-18T01:45:23.486Z,11.70
2018-09-18T01:47:51.710Z,11.70
2018-09-18T01:50:20.086Z,11.70
2018-09-18T01:52:48.287Z,11.70
2018-09-18T01:55:16.429Z,11.70
2018-09-18T01:57:44.994Z,12.00
2018-09-18T02:00:13.400Z,12.20
2018-09-18T02:02:41.680Z,12.50
2018-09-18T02:05:10.063Z,12.50
2018-09-18T02:07:38.490Z,12.40
2018-09-18T02:10:06.826Z,12.40
2018-09-18T02:12:35.408Z,12.30
2018-09-18T02:15:03.638Z,12.30
2018-09-18T02:17:31.960Z,12.20
2018-09-18T02:20:00.313Z,12.30
2018-09-18T02:22:28.497Z,12.30
2018-09-18T02:24:56.863Z,12.50
2018-09-18T02:27:25.097Z,12.70
2018-09-18T02:29:53.470Z,12.90
2018-09-18T02:32:21.819Z,13.00
2018-09-18T02:34:50.132Z,13.10
2018-09-18T02:37:18.811Z,13.00
2018-09-18T02:39:46.944Z,13.00
2018-09-18T02:42:15.205Z,13.00
2018-09-18T02:44:43.382Z,13.10
2018-09-18T02:47:11.676Z,13.20
2018-09-18T02:49:40.230Z,13.10
2018-09-18T02:52:08.723Z,13.10
2018-09-18T02:54:37.091Z,12.90
2018-09-18T02:57:05.451Z,12.80
2018-09-18T02:59:33.680Z,12.70
2018-09-18T03:02:02.287Z,12.50
2018-09-18T03:04:30.753Z,12.50
2018-09-18T03:06:58.895Z,12.50
2018-09-18T03:09:27.133Z,12.60
2018-09-18T03:11:55.289Z,12.50
2018-09-18T03:14:23.649Z,12.70
2018-09-18T03:16:51.834Z,13.00
2018-09-18T03:19:19.881Z,13.20
2018-09-18T03:21:48.116Z,13.40
2018-09-18T03:24:16.366Z,13.50
2018-09-18T03:26:44.732Z,13.50
2018-09-18T03:29:13.110Z,13.30
2018-09-18T03:31:41.534Z,13.30
2018-09-18T03:34:09.739Z,13.20
2018-09-18T03:36:38.230Z,13.10
2018-09-18T03:39:07.316Z,13.00
2018-09-18T03:41:35.719Z,12.90
2018-09-18T03:44:04.064Z,12.90
2018-09-18T03:46:32.199Z,13.10
2018-09-18T03:49:00.404Z,13.10
2018-09-18T03:51:28.617Z,13.20
2018-09-18T03:53:56.892Z,13.20
2018-09-18T03:56:25.284Z,13.20
2018-09-18T03:58:53.769Z,13.20
2018-09-18T04:01:21.932Z,13.20
2018-09-18T04:03:50.073Z,13.10
2018-09-18T04:06:18.247Z,13.10
2018-09-18T04:08:46.684Z,13.00
2018-09-18T04:11:14.888Z,13.00
2018-09-18T04:13:43.021Z,12.80
2018-09-18T04:16:11.257Z,12.80
2018-09-18T04:18:39.498Z,12.80
2018-09-18T04:21:07.785Z,13.00
2018-09-18T04:23:36.014Z,13.10
2018-09-18T04:26:04.185Z,13.10
2018-09-18T04:28:32.886Z,13.00
2018-09-18T04:31:01.129Z,13.00
2018-09-18T04:33:29.283Z,12.80
2018-09-18T04:35:57.286Z,12.70
2018-09-18T04:38:25.857Z,12.60
2018-09-18T04:40:53.991Z,12.60
2018-09-18T04:43:22.865Z,12.50
2018-09-18T04:45:51.381Z,12.50
2018-09-18T04:48:19.500Z,12.50
2018-09-18T04:50:47.947Z,12.50
2018-09-18T04:53:16.107Z,12.50
2018-09-18T04:55:44.420Z,12.50
2018-09-18T04:58:12.562Z,12.60
2018-09-18T05:00:40.709Z,12.70
2018-09-18T05:03:08.987Z,12.90
2018-09-18T05:05:37.304Z,13.00
2018-09-18T05:08:05.637Z,13.00
2018-09-18T05:10:33.816Z,13.10
2018-09-18T05:13:02.318Z,13.20
2018-09-18T05:15:30.654Z,13.10
2018-09-18T05:17:59.025Z,13.10
2018-09-18T05:20:27.355Z,13.10
2018-09-18T05:22:55.603Z,13.20
2018-09-18T05:25:23.731Z,13.30
2018-09-18T05:27:51.996Z,13.30
2018-09-18T05:30:20.431Z,13.60
2018-09-18T05:32:49.782Z,13.60
2018-09-18T05:35:18.008Z,13.70
2018-09-18T05:37:46.115Z,13.70
2018-09-18T05:40:14.315Z,13.70
2018-09-18T05:42:42.673Z,13.70
2018-09-18T05:45:11.006Z,13.70
2018-09-18T05:47:39.462Z,13.80
2018-09-18T05:50:07.810Z,13.80
2018-09-18T05:52:36.100Z,13.90
2018-09-18T05:55:04.796Z,14.00
2018-09-18T05:57:34.441Z,14.20
2018-09-18T06:00:02.740Z,14.60
2018-09-18T06:02:31.156Z,15.30
2018-09-18T06:04:59.382Z,16.00
2018-09-18T06:07:27.542Z,16.80
2018-09-18T06:09:55.993Z,17.60
2018-09-18T06:12:24.394Z,18.10
2018-09-18T06:14:52.692Z,18.60
2018-09-18T06:17:20.941Z,19.10
2018-09-18T06:19:49.170Z,19.70
2018-09-18T06:22:17.502Z,20.10
2018-09-18T06:24:45.723Z,20.40
2018-09-18T06:27:13.874Z,20.90
2018-09-18T06:29:42.542Z,21.10
2018-09-18T06:32:11.132Z,21.60
2018-09-18T06:34:39.930Z,22.20
2018-09-18T06:37:09.197Z,22.50
2018-09-18T06:39:37.484Z,22.90
2018-09-18T06:42:05.887Z,22.90
2018-09-18T06:44:34.167Z,23.30
2018-09-18T06:47:02.359Z,23.30
2018-09-18T06:49:30.555Z,23.10
2018-09-18T06:51:59.280Z,23.20
2018-09-18T06:54:27.479Z,23.30
2018-09-18T06:56:55.918Z,23.40
2018-09-18T06:59:24.368Z,23.80
2018-09-18T07:01:52.769Z,24.20
2018-09-18T07:04:21.208Z,24.70
2018-09-18T07:06:49.308Z,25.00
2018-09-18T07:09:17.772Z,25.10
2018-09-18T07:11:46.199Z,25.80
2018-09-18T07:14:14.369Z,26.50
2018-09-18T07:16:42.642Z,26.70
2018-09-18T07:19:10.865Z,26.70
2018-09-18T07:21:39.220Z,26.80
2018-09-18T07:24:07.422Z,27.00
2018-09-18T07:26:36.034Z,27.20
2018-09-18T07:29:04.170Z,27.50
2018-09-18T07:31:32.334Z,28.10
2018-09-18T07:34:00.779Z,28.20
2018-09-18T07:36:30.035Z,28.70
2018-09-18T07:38:58.226Z,29.20
2018-09-18T07:41:26.688Z,29.00
2018-09-18T07:43:55.007Z,29.80
2018-09-18T07:46:23.478Z,30.20
2018-09-18T07:48:52.222Z,30.20
2018-09-18T07:51:20.529Z,30.50
2018-09-18T07:53:48.689Z,30.90
2018-09-18T07:56:16.835Z,30.60
2018-09-18T07:58:44.960Z,30.50
2018-09-18T08:01:13.213Z,30.20
2018-09-18T08:03:41.678Z,30.10
2018-09-18T08:06:09.826Z,30.20
2018-09-18T08:08:37.970Z,30.50
2018-09-18T08:11:06.200Z,30.60
2018-09-18T08:13:34.477Z,30.60
2018-09-18T08:16:02.849Z,30.60
2018-09-18T08:18:30.963Z,30.90
2018-09-18T08:20:59.221Z,30.50
2018-09-18T08:23:27.594Z,29.90
2018-09-18T08:25:55.931Z,30.00
2018-09-18T08:28:24.308Z,30.30
2018-09-18T08:30:52.503Z,30.80
2018-09-18T08:33:21.156Z,31.10
2018-09-18T08:35:49.317Z,31.20
2018-09-18T08:38:17.556Z,31.70
2018-09-18T08:40:45.820Z,31.20
2018-09-18T08:43:14.038Z,31.30
2018-09-18T08:45:42.470Z,31.70
2018-09-18T08:48:10.607Z,31.70
2018-09-18T08:50:39.098Z,31.70
2018-09-18T08:53:07.360Z,32.20
2018-09-18T08:55:35.783Z,32.70
2018-09-18T08:58:04.277Z,32.40
2018-09-18T09:00:32.652Z,32.30
2018-09-18T09:03:00.953Z,32.70
2018-09-18T09:05:29.195Z,32.80
2018-09-18T09:07:57.785Z,32.70
2018-09-18T09:10:26.438Z,33.00
2018-09-18T09:12:54.674Z,33.50
2018-09-18T09:15:23.426Z,34.20
2018-09-18T09:17:51.586Z,34.60
2018-09-18T09:20:20.016Z,35.00
2018-09-18T09:22:48.421Z,34.70
2018-09-18T09:25:16.524Z,35.20
2018-09-18T09:27:45.358Z,35.20
2018-09-18T09:30:15.607Z,35.80
2018-09-18T09:32:45.587Z,36.00
2018-09-18T09:35:15.565Z,35.90
2018-09-18T09:37:45.365Z,35.20
2018-09-18T09:40:15.202Z,35.30
2018-09-18T09:42:45.106Z,35.70
2018-09-18T09:45:15.557Z,36.00
2018-09-18T09:47:45.368Z,36.10
2018-09-18T09:50:13.744Z,36.30
2018-09-18T09:52:42.076Z,36.60
2018-09-18T09:55:10.589Z,36.70
2018-09-18T09:57:39.154Z,37.50
2018-09-18T10:00:12.498Z,37.10
2018-09-18T10:02:46.985Z,37.00
2018-09-18T10:05:16.731Z,37.50
2018-09-18T10:07:45.286Z,38.10
2018-09-18T10:10:14.492Z,39.00
2018-09-18T10:12:42.750Z,38.20
2018-09-18T10:15:11.055Z,37.30
2018-09-18T10:17:39.551Z,36.90
2018-09-18T10:20:08.004Z,37.40
2018-09-18T10:22:36.215Z,38.30
2018-09-18T10:25:04.611Z,38.60
2018-09-18T10:27:33.087Z,38.10
2018-09-18T10:30:01.333Z,37.60
2018-09-18T10:32:29.636Z,37.50
2018-09-18T10:34:58.008Z,37.80
2018-09-18T10:37:26.333Z,37.50
2018-09-18T10:39:54.611Z,36.90
2018-09-18T10:42:22.776Z,36.80
2018-09-18T10:44:50.914Z,37.10
2018-09-18T10:47:19.242Z,37.50
2018-09-18T10:49:47.445Z,37.80
2018-09-18T10:52:15.837Z,37.30
2018-09-18T10:54:44.168Z,37.10
2018-09-18T10:57:12.495Z,36.60
2018-09-18T10:59:40.933Z,36.60
2018-09-18T11:02:09.226Z,36.60
2018-09-18T11:04:37.305Z,37.00
2018-09-18T11:07:06.182Z,36.90
2018-09-18T11:09:34.445Z,35.90
2018-09-18T11:12:02.789Z,34.70
2018-09-18T11:14:30.957Z,34.10
2018-09-18T11:16:59.181Z,33.00
2018-09-18T11:19:27.566Z,32.30
2018-09-18T11:21:55.796Z,32.00
2018-09-18T11:24:23.942Z,31.60
2018-09-18T11:26:52.248Z,31.30
2018-09-18T11:29:23.301Z,30.90
2018-09-18T11:31:51.803Z,30.70
2018-09-18T11:34:20.016Z,30.70
2018-09-18T11:36:48.439Z,31.00
2018-09-18T11:39:16.829Z,31.20
2018-09-18T11:41:45.104Z,31.30
2018-09-18T11:44:13.528Z,31.10
2018-09-18T11:46:41.943Z,30.80
2018-09-18T11:49:10.288Z,30.70
2018-09-18T11:51:38.945Z,30.60
2018-09-18T11:54:07.857Z,30.80
2018-09-18T11:56:36.058Z,30.90
2018-09-18T11:59:04.521Z,30.80
2018-09-18T12:01:32.727Z,30.60
2018-09-18T12:04:01.084Z,30.60
2018-09-18T12:06:29.369Z,31.00
2018-09-18T12:08:57.680Z,31.40
2018-09-18T12:11:25.877Z,31.60
2018-09-18T12:13:54.169Z,31.60
2018-09-18T12:16:22.349Z,31.50
2018-09-18T12:18:50.618Z,31.20
2018-09-18T12:21:18.793Z,30.60
2018-09-18T12:23:47.026Z,30.20
2018-09-18T12:26:15.270Z,30.10
2018-09-18T12:28:43.496Z,30.10
2018-09-18T12:31:11.922Z,30.30
2018-09-18T12:33:40.150Z,30.40
2018-09-18T12:36:08.833Z,30.40
2018-09-18T12:38:37.167Z,30.50
2018-09-18T12:41:05.473Z,30.50
2018-09-18T12:43:33.644Z,30.80
2018-09-18T12:46:01.963Z,30.80
2018-09-18T12:48:30.441Z,30.80
2018-09-18T12:50:59.027Z,30.50
2018-09-18T12:53:27.208Z,30.60
2018-09-18T12:55:55.412Z,30.90
2018-09-18T12:58:24.233Z,31.00
2018-09-18T13:00:52.475Z,31.00
2018-09-18T13:03:20.848Z,31.20
2018-09-18T13:05:49.541Z,31.20
2018-09-18T13:08:18.017Z,31.20
2018-09-18T13:10:46.223Z,31.40
2018-09-18T13:13:14.345Z,31.60
2018-09-18T13:15:42.801Z,31.80
2018-09-18T13:18:10.973Z,31.80
2018-09-18T13:20:39.142Z,31.80
2018-09-18T13:23:07.673Z,31.60
2018-09-18T13:25:36.286Z,31.30
2018-09-18T13:28:04.560Z,31.00
2018-09-18T13:30:32.961Z,30.90
2018-09-18T13:33:01.363Z,30.80
2018-09-18T13:35:29.595Z,30.60
2018-09-18T13:37:58.623Z,30.40
2018-09-18T13:40:26.772Z,30.40
2018-09-18T13:42:55.259Z,30.30
2018-09-18T13:45:24.131Z,30.40
2018-09-18T13:47:52.658Z,30.40
2018-09-18T13:50:21.222Z,30.30
2018-09-18T13:52:49.565Z,30.30
2018-09-18T13:55:18.294Z,30.30
2018-09-18T13:57:46.467Z,30.30
2018-09-18T14:00:15.272Z,30.50
2018-09-18T14:02:43.503Z,30.50
2018-09-18T14:05:11.681Z,30.70
2018-09-18T14:07:40.224Z,30.60
2018-09-18T14:10:10.950Z,30.60
2018-09-18T14:12:39.149Z,30.60
2018-09-18T14:15:07.386Z,30.70
2018-09-18T14:17:35.755Z,30.60
2018-09-18T14:20:04.679Z,30.60
2018-09-18T14:22:32.969Z,30.70
2018-09-18T14:25:01.423Z,30.70
2018-09-18T14:27:30.360Z,30.70
2018-09-18T14:29:58.512Z,30.70
2018-09-18T14:32:26.986Z,30.50
2018-09-18T14:34:55.460Z,30.30
2018-09-18T14:37:23.622Z,30.30
2018-09-18T14:39:51.994Z,30.20
2018-09-18T14:42:20.606Z,30.20
2018-09-18T14:44:48.843Z,30.30
2018-09-18T14:47:17.170Z,30.40
2018-09-18T14:49:45.573Z,30.50
2018-09-18T14:52:13.990Z,30.50
2018-09-18T14:54:42.119Z,30.50
2018-09-18T14:57:10.419Z,30.30
2018-09-18T14:59:38.683Z,30.20
2018-09-18T15:02:06.898Z,30.20
2018-09-18T15:04:35.037Z,30.20
2018-09-18T15:07:03.524Z,30.20
2018-09-18T15:09:31.748Z,30.10
2018-09-18T15:11:59.899Z,30.00
2018-09-18T15:14:28.273Z,29.80
2018-09-18T15:16:56.404Z,29.60
2018-09-18T15:19:24.745Z,29.40
2018-09-18T15:21:52.991Z,29.20
2018-09-18T15:24:21.207Z,29.00
2018-09-18T15:26:49.390Z,28.80
2018-09-18T15:29:17.581Z,28.60
2018-09-18T15:31:45.852Z,28.40
2018-09-18T15:34:14.129Z,28.30
2018-09-18T15:36:42.267Z,28.20
2018-09-18T15:39:10.490Z,28.20
2018-09-18T15:41:38.693Z,28.10
2018-09-18T15:44:07.093Z,28.00
2018-09-18T15:46:35.587Z,28.00
2018-09-18T15:49:04.171Z,27.90
2018-09-18T15:51:32.558Z,27.90
2018-09-18T15:54:01.366Z,27.90
2018-09-18T15:56:29.482Z,27.90
2018-09-18T15:58:58.207Z,27.80
2018-09-18T16:01:26.530Z,27.70
2018-09-18T16:03:55.928Z,27.70
2018-09-18T16:06:24.264Z,27.60
2018-09-18T16:08:52.491Z,27.50
2018-09-18T16:11:20.637Z,27.40
2018-09-18T16:13:48.865Z,27.30
2018-09-18T16:16:17.147Z,27.30
2018-09-18T16:18:45.318Z,27.20
2018-09-18T16:21:13.813Z,27.00
2018-09-18T16:23:42.078Z,27.00
2018-09-18T16:26:10.315Z,26.80
2018-09-18T16:28:38.576Z,26.80
2018-09-18T16:31:08.236Z,26.70
2018-09-18T16:33:36.523Z,26.60
2018-09-18T16:36:04.724Z,26.60
2018-09-18T16:38:33.632Z,26.50
2018-09-18T16:41:02.094Z,26.50
2018-09-18T16:43:30.657Z,26.50
2018-09-18T16:45:58.918Z,26.40
2018-09-18T16:48:32.082Z,26.40
2018-09-18T16:51:00.513Z,26.30
2018-09-18T16:53:29.121Z,26.40
2018-09-18T16:55:57.207Z,26.30
2018-09-18T16:58:30.678Z,26.20
2018-09-18T17:00:59.011Z,25.90
2018-09-18T17:03:27.458Z,25.70
2018-09-18T17:05:55.640Z,25.50
2018-09-18T17:08:23.750Z,25.30
2018-09-18T17:10:52.071Z,25.30
2018-09-18T17:13:20.364Z,25.10
2018-09-18T17:15:48.739Z,24.90
2018-09-18T17:18:17.078Z,24.80
2018-09-18T17:20:45.761Z,24.70
2018-09-18T17:23:13.989Z,24.70
2018-09-18T17:25:42.136Z,24.70
2018-09-18T17:28:11.111Z,24.60
2018-09-18T17:30:39.588Z,24.60
2018-09-18T17:33:07.867Z,24.60
2018-09-18T17:35:36.039Z,24.60
2018-09-18T17:38:04.283Z,24.50
2018-09-18T17:40:32.715Z,24.50
2018-09-18T17:43:00.930Z,24.50
2018-09-18T17:45:30.369Z,24.40
2018-09-18T17:47:58.699Z,24.40
2018-09-18T17:50:27.177Z,24.40
2018-09-18T17:52:55.454Z,24.30
2018-09-18T17:55:23.683Z,24.20
2018-09-18T17:57:51.964Z,24.20
2018-09-18T18:00:20.320Z,24.00
2018-09-18T18:02:48.716Z,24.00
2018-09-18T18:05:17.365Z,24.00
2018-09-18T18:07:45.986Z,23.90
2018-09-18T18:10:14.287Z,23.80
2018-09-18T18:12:42.654Z,23.80
2018-09-18T18:15:11.069Z,23.70
2018-09-18T18:17:39.340Z,23.80
2018-09-18T18:20:07.479Z,23.80
2018-09-18T18:22:35.626Z,23.80
2018-09-18T18:25:04.497Z,23.80
2018-09-18T18:27:33.078Z,23.80
2018-09-18T18:30:01.563Z,23.60
2018-09-18T18:32:29.964Z,23.50
2018-09-18T18:34:58.180Z,23.40
2018-09-18T18:37:26.650Z,23.30
2018-09-18T18:39:55.014Z,23.30
2018-09-18T18:42:23.551Z,23.30
2018-09-18T18:44:51.920Z,23.30
2018-09-18T18:47:20.252Z,23.20
2018-09-18T18:49:48.799Z,23.10
2018-09-18T18:52:16.953Z,23.10
2018-09-18T18:54:46.168Z,23.10
2018-09-18T18:57:14.538Z,23.10
2018-09-18T18:59:42.821Z,23.10
2018-09-18T19:02:11.078Z,23.00
2018-09-18T19:04:39.617Z,23.00
2018-09-18T19:07:08.359Z,22.90
2018-09-18T19:09:36.543Z,23.00
2018-09-18T19:12:05.217Z,23.00
2018-09-18T19:14:33.467Z,23.00
2018-09-18T19:17:02.445Z,23.10
2018-09-18T19:19:31.114Z,23.00
2018-09-18T19:21:59.358Z,23.00
2018-09-18T19:24:27.855Z,22.80
2018-09-18T19:26:56.248Z,22.70
2018-09-18T19:29:24.721Z,22.60
2018-09-18T19:31:53.222Z,22.50
2018-09-18T19:34:21.772Z,22.50
2018-09-18T19:36:50.010Z,22.40
2018-09-18T19:39:20.003Z,22.30
2018-09-18T19:41:55.433Z,22.30
2018-09-18T19:44:24.401Z,22.30
2018-09-18T19:46:53.073Z,22.30
2018-09-18T19:49:21.385Z,22.20
2018-09-18T19:51:49.813Z,21.90
2018-09-18T19:54:18.109Z,21.80
2018-09-18T19:56:46.588Z,21.70
2018-09-18T19:59:14.952Z,21.50
2018-09-18T20:01:43.403Z,21.50
2018-09-18T20:04:11.916Z,21.40
2018-09-18T20:06:40.694Z,21.30
2018-09-18T20:09:10.248Z,21.20
2018-09-18T20:11:38.791Z,21.10
2018-09-18T20:14:08.286Z,21.10
2018-09-18T20:16:37.335Z,21.00
2018-09-18T20:19:05.852Z,20.90
2018-09-18T20:21:34.564Z,20.80
2018-09-18T20:24:02.644Z,20.70
2018-09-18T20:26:31.100Z,20.60
2018-09-18T20:28:59.661Z,20.60
2018-09-18T20:31:28.416Z,20.70
2018-09-18T20:33:57.162Z,20.60
2018-09-18T20:36:26.447Z,20.60
2018-09-18T20:38:54.699Z,20.40
2018-09-18T20:41:23.008Z,20.30
2018-09-18T20:43:51.506Z,20.20
2018-09-18T20:46:20.008Z,20.00
2018-09-18T20:48:48.567Z,19.90
2018-09-18T20:51:17.314Z,19.90
2018-09-18T20:53:45.548Z,19.90
2018-09-18T20:56:15.521Z,19.90
2018-09-18T20:58:44.109Z,19.90
2018-09-18T21:01:13.078Z,19.90
2018-09-18T21:03:41.465Z,20.00
2018-09-18T21:06:10.322Z,20.20
2018-09-18T21:08:38.548Z,20.50
2018-09-18T21:11:06.955Z,20.70
2018-09-18T21:13:35.186Z,20.70
2018-09-18T21:16:03.989Z,20.70
2018-09-18T21:18:32.651Z,20.70
2018-09-18T21:21:00.971Z,20.70
2018-09-18T21:23:29.521Z,20.80
2018-09-18T21:26:01.957Z,20.70
2018-09-18T21:28:30.526Z,20.70
2018-09-18T21:30:58.905Z,20.60
2018-09-18T21:33:27.413Z,20.60
2018-09-18T21:35:55.901Z,20.60
2018-09-18T21:38:24.010Z,20.50
2018-09-18T21:40:52.305Z,20.40
2018-09-18T21:43:20.422Z,20.40
2018-09-18T21:45:49.011Z,20.40
2018-09-18T21:48:17.293Z,20.50
2018-09-18T21:50:45.930Z,20.60
2018-09-18T21:53:14.846Z,20.70
2018-09-18T21:55:43.744Z,20.70
2018-09-18T21:58:14.131Z,20.70
2018-09-18T22:00:42.886Z,20.70
2018-09-18T22:03:11.792Z,20.80
2018-09-18T22:05:40.375Z,20.80
2018-09-18T22:08:08.864Z,20.80
2018-09-18T22:10:37.268Z,20.70
2018-09-18T22:13:06.282Z,20.80
2018-09-18T22:15:35.022Z,21.00
2018-09-18T22:18:03.295Z,21.00
2018-09-18T22:20:31.472Z,21.00
2018-09-18T22:22:59.681Z,21.00
2018-09-18T22:25:28.216Z,21.00
2018-09-18T22:27:56.727Z,20.90
2018-09-18T22:30:25.325Z,21.00
2018-09-18T22:32:53.493Z,20.90
2018-09-18T22:35:22.044Z,20.90
2018-09-18T22:37:50.725Z,20.80
2018-09-18T22:40:18.843Z,20.70
2018-09-18T22:42:47.227Z,20.50
2018-09-18T22:45:15.470Z,20.40
2018-09-18T22:47:43.689Z,20.40
2018-09-18T22:50:11.962Z,20.20
2018-09-18T22:52:40.112Z,20.10
2018-09-18T22:55:08.447Z,20.00
2018-09-18T22:57:36.678Z,19.90
2018-09-18T23:00:06.283Z,19.80
2018-09-18T23:02:34.316Z,19.90
2018-09-18T23:05:02.374Z,19.80
2018-09-18T23:07:30.394Z,19.70
2018-09-18T23:09:58.307Z,19.70
2018-09-18T23:12:26.672Z,19.60
2018-09-18T23:14:55.156Z,19.60
2018-09-18T23:17:23.866Z,19.50
2018-09-18T23:19:52.128Z,19.50
2018-09-18T23:22:20.446Z,19.40
2018-09-18T23:24:48.723Z,19.40
2018-09-18T23:27:16.771Z,19.40
2018-09-18T23:29:44.982Z,19.30
2018-09-18T23:32:13.102Z,19.30
2018-09-18T23:34:41.195Z,19.20
2018-09-18T23:37:09.612Z,19.10
2018-09-18T23:39:37.757Z,19.00
2018-09-18T23:42:05.966Z,18.80
2018-09-18T23:44:34.179Z,18.70
2018-09-18T23:47:02.393Z,18.60
2018-09-18T23:49:30.658Z,18.50
2018-09-18T23:51:58.906Z,18.50
2018-09-18T23:54:28.010Z,18.50
2018-09-18T23:56:56.512Z,18.40
2018-09-18T23:59:24.648Z,18.40
